Observation data for Menard on 11/19/2019      Previous  Date  Next       Current Mesonet Observations  Soil Data  Daily Summary Page  Observations in Plain Language
KMD1 191900Z 16010KT 24/08 A2995 RMK A01 T02430076  RH  034%=      5-min Rain = 0
KMD1 191901Z 17011KT 25/08 A2995 RMK A01 T02460075  RH  033%=      5-min Rain = 0
KMD1 191902Z 17013KT 25/07 A2995 RMK A01 T02470073  RH  033%=      5-min Rain = 0
KMD1 191903Z 18008KT 25/08 A2995 RMK A01 T02480076  RH  033%=      5-min Rain = 0
KMD1 191904Z 19010KT 25/08 A2995 RMK A01 T02490081  RH  034%=      5-min Rain = 0
KMD1 191905Z 17012KT 25/08 A2995 RMK A01 T02490081  RH  034%=      5-min Rain = 0
KMD1 191906Z 17012KT 25/08 A2995 RMK A01 T02480079  RH  034%=      5-min Rain = 0
KMD1 191907Z 17010KT 25/08 A2995 RMK A01 T02470079  RH  034%=      5-min Rain = 0
KMD1 191908Z 18009KT 25/08 A2994 RMK A01 T02490082  RH  035%=      5-min Rain = 0
KMD1 191909Z 17009KT 25/08 A2994 RMK A01 T02500084  RH  035%=      5-min Rain = 0
KMD1 191910Z 17011KT 25/09 A2994 RMK A01 T02510085  RH  035%=      5-min Rain = 0
KMD1 191911Z 19011G16KT 25/08 A2994 RMK A01 T02500080  RH  034%=      5-min Rain = 0
KMD1 191912Z 17012KT 25/08 A2994 RMK A01 T02480081  RH  034%=      5-min Rain = 0
KMD1 191913Z 17014KT 25/08 A2994 RMK A01 T02460083  RH  035%=      5-min Rain = 0
KMD1 191914Z 17014KT 24/08 A2994 RMK A01 T02430083  RH  036%=      5-min Rain = 0
KMD1 191915Z 18014KT 24/08 A2994 RMK A01 T02410078  RH  035%=      5-min Rain = 0
KMD1 191916Z 18009KT 24/08 A2994 RMK A01 T02400079  RH  036%=      5-min Rain = 0
KMD1 191917Z 17009KT 24/08 A2994 RMK A01 T02430082  RH  036%=      5-min Rain = 0
KMD1 191918Z 17013KT 25/08 A2994 RMK A01 T02470081  RH  035%=      5-min Rain = 0
KMD1 191919Z 19009KT 25/08 A2994 RMK A01 T02450082  RH  035%=      5-min Rain = 0
KMD1 191920Z 19011KT 24/08 A2994 RMK A01 T02420082  RH  036%=      5-min Rain = 0
KMD1 191921Z 20009G14KT 24/08 A2994 RMK A01 T02410083  RH  036%=      5-min Rain = 0
KMD1 191922Z 19011KT 24/08 A2994 RMK A01 T02420083  RH  036%=      5-min Rain = 0
KMD1 191923Z 19010KT 24/08 A2994 RMK A01 T02420084  RH  037%=      5-min Rain = 0
KMD1 191924Z 20010KT 24/09 A2994 RMK A01 T02400086  RH  038%=      5-min Rain = 0
KMD1 191925Z 20009KT 24/09 A2994 RMK A01 T02390086  RH  038%=      5-min Rain = 0
KMD1 191926Z 20011KT 24/09 A2994 RMK A01 T02380088  RH  038%=      5-min Rain = 0
KMD1 191927Z 18011KT 24/09 A2994 RMK A01 T02390088  RH  038%=      5-min Rain = 0
KMD1 191928Z 17012KT 24/09 A2994 RMK A01 T02380087  RH  038%=      5-min Rain = 0
KMD1 191929Z 18013KT 24/09 A2994 RMK A01 T02380089  RH  039%=      5-min Rain = 0
KMD1 191930Z 17012KT 24/09 A2993 RMK A01 T02380089  RH  039%=      5-min Rain = 0
KMD1 191931Z 17009KT 24/09 A2994 RMK A01 T02380089  RH  039%=      5-min Rain = 0
KMD1 191932Z 17009KT 24/09 A2993 RMK A01 T02390088  RH  038%=      5-min Rain = 0
KMD1 191933Z 17009G14KT 24/09 A2993 RMK A01 T02390088  RH  038%=      5-min Rain = 0
KMD1 191934Z 17012KT 24/09 A2993 RMK A01 T02390088  RH  038%=      5-min Rain = 0
KMD1 191935Z 18010KT 24/09 A2993 RMK A01 T02390088  RH  038%=      5-min Rain = 0
KMD1 191936Z 18007KT 24/09 A2993 RMK A01 T02390089  RH  038%=      5-min Rain = 0
KMD1 191937Z 19008KT 24/09 A2993 RMK A01 T02400089  RH  038%=      5-min Rain = 0
KMD1 191938Z 19009KT 24/09 A2993 RMK A01 T02410089  RH  038%=      5-min Rain = 0
KMD1 191939Z 19009KT 24/09 A2993 RMK A01 T02400089  RH  038%=      5-min Rain = 0
KMD1 191940Z 18009KT 24/09 A2993 RMK A01 T02410087  RH  037%=      5-min Rain = 0
KMD1 191941Z 19006KT 24/09 A2993 RMK A01 T02400087  RH  037%=      5-min Rain = 0
KMD1 191942Z 20007KT 24/09 A2993 RMK A01 T02400089  RH  038%=      5-min Rain = 0
KMD1 191943Z 17010KT 24/09 A2993 RMK A01 T02420089  RH  038%=      5-min Rain = 0
KMD1 191944Z 17011KT 24/09 A2993 RMK A01 T02440088  RH  037%=      5-min Rain = 0
KMD1 191945Z 17009KT 25/09 A2993 RMK A01 T02460090  RH  037%=      5-min Rain = 0
KMD1 191946Z 17011KT 25/09 A2993 RMK A01 T02470089  RH  037%=      5-min Rain = 0
KMD1 191947Z 16010KT 25/09 A2992 RMK A01 T02470090  RH  037%=      5-min Rain = 0
KMD1 191948Z 17010KT 25/09 A2992 RMK A01 T02480090  RH  037%=      5-min Rain = 0
KMD1 191949Z 17008KT 25/09 A2992 RMK A01 T02490089  RH  036%=      5-min Rain = 0
KMD1 191950Z 17006KT 25/09 A2992 RMK A01 T02490090  RH  036%=      5-min Rain = 0
KMD1 191951Z 15008G14KT 25/09 A2992 RMK A01 T02530092  RH  036%=      5-min Rain = 0
KMD1 191952Z 15008KT 26/09 A2992 RMK A01 T02560090  RH  035%=      5-min Rain = 0
KMD1 191953Z 14008KT 26/09 A2992 RMK A01 T02570091  RH  035%=      5-min Rain = 0
KMD1 191954Z 13009KT 26/09 A2992 RMK A01 T02570090  RH  035%=      5-min Rain = 0
KMD1 191955Z 14007KT 26/09 A2992 RMK A01 T02570090  RH  035%=      5-min Rain = 0
KMD1 191956Z 16005KT 26/09 A2992 RMK A01 T02570089  RH  035%=      5-min Rain = 0
KMD1 191957Z 17009KT 26/09 A2992 RMK A01 T02600093  RH  035%=      5-min Rain = 0
KMD1 191958Z 19013KT 26/09 A2991 RMK A01 T02640087  RH  033%=      5-min Rain = 0
KMD1 191959Z 20010KT 26/08 A2991 RMK A01 T02640084  RH  032%=      5-min Rain = 0
KMD1 192000Z 21010G15KT 26/08 A2991 RMK A01 T02630083  RH  032%=      5-min Rain = 0
KMD1 192001Z 20008G13KT 27/09 A2991 RMK A01 T02650086  RH  032%=      5-min Rain = 0
KMD1 192002Z 20006G11KT 27/09 A2991 RMK A01 T02690086  RH  031%=      5-min Rain = 0
KMD1 192003Z 15012KT 27/09 A2991 RMK A01 T02720087  RH  031%=      5-min Rain = 0
KMD1 192004Z 15010KT 27/09 A2991 RMK A01 T02700087  RH  031%=      5-min Rain = 0
KMD1 192005Z 15008KT 27/09 A2991 RMK A01 T02660087  RH  032%=      5-min Rain = 0
KMD1 192006Z 15011KT 27/09 A2991 RMK A01 T02650088  RH  033%=      5-min Rain = 0
KMD1 192007Z 14011KT 27/09 A2991 RMK A01 T02670088  RH  032%=      5-min Rain = 0
KMD1 192008Z 14009KT 27/09 A2991 RMK A01 T02660087  RH  032%=      5-min Rain = 0
KMD1 192009Z 16010KT 27/09 A2991 RMK A01 T02660088  RH  032%=      5-min Rain = 0
KMD1 192010Z 18012KT 27/09 A2991 RMK A01 T02670085  RH  032%=      5-min Rain = 0
KMD1 192011Z 18012KT 27/08 A2991 RMK A01 T02670082  RH  031%=      5-min Rain = 0
KMD1 192012Z 17010KT 27/08 A2991 RMK A01 T02650080  RH  031%=      5-min Rain = 0
KMD1 192013Z 20008KT 26/08 A2991 RMK A01 T02620080  RH  032%=      5-min Rain = 0
KMD1 192014Z 21008KT 26/08 A2991 RMK A01 T02620082  RH  032%=      5-min Rain = 0
KMD1 192015Z 18011KT 27/08 A299 RMK A01 T02670084  RH  032%=      5-min Rain = 0
KMD1 192016Z 16013KT 27/08 A299 RMK A01 T02700084  RH  031%=      5-min Rain = 0
KMD1 192017Z 17012KT 27/08 A2991 RMK A01 T02690083  RH  031%=      5-min Rain = 0
KMD1 192018Z 17011G16KT 27/08 A2991 RMK A01 T02660082  RH  031%=      5-min Rain = 0
KMD1 192019Z 18014KT 26/08 A299 RMK A01 T02630079  RH  031%=      5-min Rain = 0
KMD1 192020Z 18012KT 26/08 A299 RMK A01 T02620077  RH  031%=      5-min Rain = 0
KMD1 192021Z 19008KT 26/08 A299 RMK A01 T02630077  RH  031%=      5-min Rain = 0
KMD1 192022Z 20010KT 27/08 A299 RMK A01 T02650079  RH  031%=      5-min Rain = 0
KMD1 192023Z 20012KT 27/08 A299 RMK A01 T02680080  RH  030%=      5-min Rain = 0
KMD1 192024Z 20012KT 27/08 A299 RMK A01 T02690080  RH  030%=      5-min Rain = 0
KMD1 192025Z 19012KT 27/08 A299 RMK A01 T02660079  RH  031%=      5-min Rain = 0
KMD1 192026Z 18011G16KT 27/08 A299 RMK A01 T02660080  RH  031%=      5-min Rain = 0
KMD1 192027Z 18011KT 27/08 A299 RMK A01 T02660079  RH  031%=      5-min Rain = 0
KMD1 192028Z 18014KT 27/08 A299 RMK A01 T02650080  RH  031%=      5-min Rain = 0
KMD1 192029Z 17014KT 27/08 A299 RMK A01 T02650079  RH  031%=      5-min Rain = 0
KMD1 192030Z 17013KT 26/08 A299 RMK A01 T02630079  RH  031%=      5-min Rain = 0
KMD1 192031Z 16012KT 26/08 A299 RMK A01 T02630079  RH  031%=      5-min Rain = 0
KMD1 192032Z 15014KT 26/08 A299 RMK A01 T02640078  RH  031%=      5-min Rain = 0
KMD1 192033Z 18011KT 26/08 A299 RMK A01 T02640078  RH  031%=      5-min Rain = 0
KMD1 192034Z 17014KT 27/08 A299 RMK A01 T02650079  RH  031%=      5-min Rain = 0
KMD1 192035Z 17013KT 26/08 A299 RMK A01 T02640079  RH  031%=      5-min Rain = 0
KMD1 192036Z 16013KT 26/08 A299 RMK A01 T02640078  RH  031%=      5-min Rain = 0
KMD1 192037Z 16011KT 26/08 A299 RMK A01 T02640079  RH  031%=      5-min Rain = 0
KMD1 192038Z 18011KT 26/08 A299 RMK A01 T02640079  RH  031%=      5-min Rain = 0
KMD1 192039Z 17009KT 27/08 A299 RMK A01 T02660079  RH  031%=      5-min Rain = 0
KMD1 192040Z 15012KT 27/08 A299 RMK A01 T02690079  RH  030%=      5-min Rain = 0
KMD1 192041Z 17010KT 27/08 A299 RMK A01 T02690078  RH  030%=      5-min Rain = 0
KMD1 192042Z 18013KT 27/08 A299 RMK A01 T02690079  RH  030%=      5-min Rain = 0
KMD1 192043Z 19015KT 27/08 A299 RMK A01 T02700076  RH  029%=      5-min Rain = 0
KMD1 192044Z 17014KT 27/08 A299 RMK A01 T02680076  RH  030%=      5-min Rain = 0
KMD1 192045Z 18014G20KT 27/08 A299 RMK A01 T02690075  RH  029%=      5-min Rain = 0
KMD1 192046Z 18014KT 27/07 A299 RMK A01 T02680074  RH  029%=      5-min Rain = 0
KMD1 192047Z 19011KT 27/08 A299 RMK A01 T02650075  RH  030%=      5-min Rain = 0
KMD1 192048Z 19013KT 27/07 A299 RMK A01 T02660074  RH  030%=      5-min Rain = 0
KMD1 192049Z 19014KT 27/07 A299 RMK A01 T02660074  RH  030%=      5-min Rain = 0
KMD1 192050Z 18013KT 26/07 A299 RMK A01 T02640073  RH  030%=      5-min Rain = 0
KMD1 192051Z 18014KT 26/07 A299 RMK A01 T02630072  RH  030%=      5-min Rain = 0
KMD1 192052Z 18011KT 26/07 A299 RMK A01 T02620071  RH  030%=      5-min Rain = 0
KMD1 192053Z 18011KT 26/07 A299 RMK A01 T02620071  RH  030%=      5-min Rain = 0
KMD1 192054Z 17013KT 26/07 A299 RMK A01 T02630070  RH  029%=      5-min Rain = 0
KMD1 192055Z 17010KT 26/07 A299 RMK A01 T02620071  RH  030%=      5-min Rain = 0
KMD1 192056Z 17012KT 26/07 A299 RMK A01 T02630070  RH  029%=      5-min Rain = 0
KMD1 192057Z 16014KT 26/07 A299 RMK A01 T02640070  RH  029%=      5-min Rain = 0
KMD1 192058Z 16010KT 26/07 A299 RMK A01 T02640071  RH  029%=      5-min Rain = 0
KMD1 192059Z 16010KT 27/07 A2989 RMK A01 T02650071  RH  029%=      5-min Rain = 0
KMD1 192100Z 18007KT 27/07 A2989 RMK A01 T02660071  RH  029%=      5-min Rain = 0
KMD1 192101Z 17008G14KT 27/07 A2989 RMK A01 T02670072  RH  029%=      5-min Rain = 0
KMD1 192102Z 18015KT 27/07 A2989 RMK A01 T02680071  RH  029%=      5-min Rain = 0
KMD1 192103Z 18013KT 27/07 A2989 RMK A01 T02670071  RH  029%=      5-min Rain = 0
KMD1 192104Z 19012KT 26/07 A2989 RMK A01 T02640071  RH  029%=      5-min Rain = 0
KMD1 192105Z 19010KT 26/07 A2989 RMK A01 T02640071  RH  029%=      5-min Rain = 0
KMD1 192106Z 20010KT 26/07 A2989 RMK A01 T02640072  RH  029%=      5-min Rain = 0
KMD1 192107Z 20010KT 26/07 A2989 RMK A01 T02640071  RH  029%=      5-min Rain = 0
KMD1 192108Z 18011KT 26/07 A2989 RMK A01 T02640071  RH  029%=      5-min Rain = 0
KMD1 192109Z 19011KT 26/07 A2989 RMK A01 T02640071  RH  029%=      5-min Rain = 0
KMD1 192110Z 20011KT 26/07 A2989 RMK A01 T02640071  RH  029%=      5-min Rain = 0
KMD1 192111Z 20014KT 26/07 A2989 RMK A01 T02630071  RH  029%=      5-min Rain = 0
KMD1 192112Z 18010KT 26/07 A2989 RMK A01 T02640070  RH  029%=      5-min Rain = 0
KMD1 192113Z 20010G15KT 26/07 A2989 RMK A01 T02630071  RH  029%=      5-min Rain = 0
KMD1 192114Z 22012KT 26/07 A2989 RMK A01 T02630070  RH  029%=      5-min Rain = 0
KMD1 192115Z 21012G17KT 26/07 A2989 RMK A01 T02630070  RH  029%=      5-min Rain = 0
KMD1 192116Z 21014KT 26/07 A2989 RMK A01 T02640070  RH  029%=      5-min Rain = 0
KMD1 192117Z 22013KT 26/07 A2989 RMK A01 T02640071  RH  029%=      5-min Rain = 0
KMD1 192118Z 22014KT 26/07 A2989 RMK A01 T02620071  RH  030%=      5-min Rain = 0
KMD1 192119Z 22012KT 26/07 A2989 RMK A01 T02620071  RH  030%=      5-min Rain = 0
KMD1 192120Z 21011KT 26/07 A2989 RMK A01 T02620071  RH  030%=      5-min Rain = 0
KMD1 192121Z 21012KT 26/07 A2989 RMK A01 T02620072  RH  030%=      5-min Rain = 0
KMD1 192122Z 20014KT 26/07 A2989 RMK A01 T02620071  RH  030%=      5-min Rain = 0
KMD1 192123Z 20011KT 26/07 A2989 RMK A01 T02610070  RH  030%=      5-min Rain = 0
KMD1 192124Z 19014KT 26/07 A2989 RMK A01 T02590071  RH  030%=      5-min Rain = 0
KMD1 192125Z 19013KT 26/07 A2989 RMK A01 T02590071  RH  030%=      5-min Rain = 0
KMD1 192126Z 20010KT 26/07 A2989 RMK A01 T02600072  RH  030%=      5-min Rain = 0
KMD1 192127Z 19013KT 26/07 A2989 RMK A01 T02610072  RH  030%=      5-min Rain = 0
KMD1 192128Z 19011KT 26/07 A2989 RMK A01 T02610071  RH  030%=      5-min Rain = 0
KMD1 192129Z 19012KT 26/07 A2989 RMK A01 T02600072  RH  030%=      5-min Rain = 0
KMD1 192130Z 19013KT 26/07 A2989 RMK A01 T02600072  RH  030%=      5-min Rain = 0
KMD1 192131Z 19009KT 26/07 A2989 RMK A01 T02610073  RH  030%=      5-min Rain = 0
KMD1 192132Z 21010KT 26/07 A2989 RMK A01 T02610073  RH  030%=      5-min Rain = 0
KMD1 192133Z 21010KT 26/07 A2989 RMK A01 T02620072  RH  030%=      5-min Rain = 0
KMD1 192134Z 22013KT 26/07 A2989 RMK A01 T02620072  RH  030%=      5-min Rain = 0
KMD1 192135Z 22011KT 26/07 A299 RMK A01 T02600070  RH  030%=      5-min Rain = 0
KMD1 192136Z 22008G13KT 26/07 A299 RMK A01 T02580071  RH  030%=      5-min Rain = 0
KMD1 192137Z 21013KT 26/07 A2989 RMK A01 T02580072  RH  030%=      5-min Rain = 0
KMD1 192138Z 21010KT 26/07 A299 RMK A01 T02590071  RH  030%=      5-min Rain = 0
KMD1 192139Z 20014KT 26/07 A299 RMK A01 T02590072  RH  030%=      5-min Rain = 0
KMD1 192140Z 20011KT 26/07 A299 RMK A01 T02600072  RH  030%=      5-min Rain = 0
KMD1 192141Z 20009KT 26/07 A299 RMK A01 T02600072  RH  030%=      5-min Rain = 0
KMD1 192142Z 21009KT 26/07 A299 RMK A01 T02620072  RH  030%=      5-min Rain = 0
KMD1 192143Z 21014KT 26/07 A299 RMK A01 T02630070  RH  029%=      5-min Rain = 0
KMD1 192144Z 20012G17KT 26/07 A299 RMK A01 T02620070  RH  029%=      5-min Rain = 0
KMD1 192145Z 21011KT 26/07 A299 RMK A01 T02600070  RH  030%=      5-min Rain = 0
KMD1 192146Z 21014KT 26/07 A299 RMK A01 T02600072  RH  030%=      5-min Rain = 0
KMD1 192147Z 21009KT 26/07 A299 RMK A01 T02600071  RH  030%=      5-min Rain = 0
KMD1 192148Z 20011KT 26/07 A299 RMK A01 T02600071  RH  030%=      5-min Rain = 0
KMD1 192149Z 19011KT 26/07 A299 RMK A01 T02600070  RH  030%=      5-min Rain = 0
KMD1 192150Z 19012KT 26/07 A299 RMK A01 T02600070  RH  030%=      5-min Rain = 0
KMD1 192151Z 20012G17KT 26/07 A2989 RMK A01 T02590072  RH  030%=      5-min Rain = 0
KMD1 192152Z 21011KT 26/07 A299 RMK A01 T02590072  RH  030%=      5-min Rain = 0
KMD1 192153Z 21010KT 26/07 A2989 RMK A01 T02600072  RH  030%=      5-min Rain = 0
KMD1 192154Z 20010KT 26/07 A2989 RMK A01 T02590073  RH  031%=      5-min Rain = 0
KMD1 192155Z 21008KT 26/07 A2989 RMK A01 T02590074  RH  031%=      5-min Rain = 0
KMD1 192156Z 20009KT 26/08 A2989 RMK A01 T02600075  RH  031%=      5-min Rain = 0
KMD1 192157Z 21011KT 26/08 A2989 RMK A01 T02610075  RH  031%=      5-min Rain = 0
KMD1 192158Z 20009KT 26/08 A2989 RMK A01 T02600076  RH  031%=      5-min Rain = 0
KMD1 192159Z 20009KT 26/08 A2989 RMK A01 T02600076  RH  031%=      5-min Rain = 0
KMD1 192200Z 20009KT 26/08 A2989 RMK A01 T02610076  RH  031%=      5-min Rain = 0
KMD1 192201Z 19012KT 26/08 A2989 RMK A01 T02610076  RH  031%=      5-min Rain = 0
KMD1 192202Z 20011KT 26/08 A2989 RMK A01 T02610077  RH  031%=      5-min Rain = 0
KMD1 192203Z 21009KT 26/08 A2989 RMK A01 T02600078  RH  031%=      5-min Rain = 0
KMD1 192204Z 20011KT 26/08 A2989 RMK A01 T02600079  RH  032%=      5-min Rain = 0
KMD1 192205Z 21011KT 26/08 A2989 RMK A01 T02600079  RH  032%=      5-min Rain = 0
KMD1 192206Z 22012KT 26/08 A2989 RMK A01 T02590079  RH  032%=      5-min Rain = 0
KMD1 192207Z 21009G14KT 26/08 A2989 RMK A01 T02580080  RH  032%=      5-min Rain = 0
KMD1 192208Z 20008KT 26/08 A2989 RMK A01 T02590080  RH  032%=      5-min Rain = 0
KMD1 192209Z 19013KT 26/08 A2989 RMK A01 T02590080  RH  032%=      5-min Rain = 0
KMD1 192210Z 20013KT 26/08 A2989 RMK A01 T02580080  RH  032%=      5-min Rain = 0
KMD1 192211Z 21010KT 26/08 A2989 RMK A01 T02570080  RH  032%=      5-min Rain = 0
KMD1 192212Z 20011KT 26/08 A2989 RMK A01 T02570079  RH  032%=      5-min Rain = 0
KMD1 192213Z 20010KT 26/08 A2989 RMK A01 T02570080  RH  032%=      5-min Rain = 0
KMD1 192214Z 20008KT 26/08 A2989 RMK A01 T02570080  RH  032%=      5-min Rain = 0
KMD1 192215Z 20009KT 26/08 A2989 RMK A01 T02570080  RH  033%=      5-min Rain = 0
KMD1 192216Z 19007KT 26/08 A2989 RMK A01 T02570080  RH  033%=      5-min Rain = 0
KMD1 192217Z 20010KT 26/08 A2989 RMK A01 T02580080  RH  032%=      5-min Rain = 0
KMD1 192218Z 22009KT 26/08 A2989 RMK A01 T02580080  RH  032%=      5-min Rain = 0
KMD1 192219Z 21009KT 26/08 A2989 RMK A01 T02570080  RH  032%=      5-min Rain = 0
KMD1 192220Z 20008KT 26/08 A2989 RMK A01 T02570080  RH  033%=      5-min Rain = 0
KMD1 192221Z 21011KT 26/08 A2989 RMK A01 T02570081  RH  033%=      5-min Rain = 0
KMD1 192222Z 21009KT 26/08 A2989 RMK A01 T02570080  RH  032%=      5-min Rain = 0
KMD1 192223Z 20011KT 26/08 A2989 RMK A01 T02570081  RH  033%=      5-min Rain = 0
KMD1 192224Z 20010KT 26/08 A2989 RMK A01 T02560081  RH  033%=      5-min Rain = 0
KMD1 192225Z 20013KT 26/08 A2989 RMK A01 T02560080  RH  033%=      5-min Rain = 0
KMD1 192226Z 20014KT 26/08 A2989 RMK A01 T02550079  RH  033%=      5-min Rain = 0
KMD1 192227Z 20013KT 25/08 A2989 RMK A01 T02540079  RH  033%=      5-min Rain = 0
KMD1 192228Z 19011KT 25/08 A2989 RMK A01 T02530079  RH  033%=      5-min Rain = 0
KMD1 192229Z 19009KT 25/08 A2989 RMK A01 T02520080  RH  033%=      5-min Rain = 0
KMD1 192230Z 18010KT 25/08 A2989 RMK A01 T02520080  RH  033%=      5-min Rain = 0
KMD1 192231Z 19010KT 25/08 A2989 RMK A01 T02520081  RH  034%=      5-min Rain = 0
KMD1 192232Z 19009KT 25/08 A2989 RMK A01 T02520082  RH  034%=      5-min Rain = 0
KMD1 192233Z 19008KT 25/08 A2989 RMK A01 T02520081  RH  034%=      5-min Rain = 0
KMD1 192234Z 19010KT 25/08 A2989 RMK A01 T02520081  RH  034%=      5-min Rain = 0
KMD1 192235Z 20012KT 25/08 A2989 RMK A01 T02520079  RH  033%=      5-min Rain = 0
KMD1 192236Z 20008KT 25/08 A2989 RMK A01 T02520078  RH  033%=      5-min Rain = 0
KMD1 192237Z 20011KT 25/08 A2989 RMK A01 T02520078  RH  033%=      5-min Rain = 0
KMD1 192238Z 21009KT 25/08 A2989 RMK A01 T02510078  RH  033%=      5-min Rain = 0
KMD1 192239Z 21010KT 25/08 A2989 RMK A01 T02510078  RH  033%=      5-min Rain = 0
KMD1 192240Z 21010KT 25/08 A2989 RMK A01 T02510079  RH  033%=      5-min Rain = 0
KMD1 192241Z 19010KT 25/08 A2989 RMK A01 T02510079  RH  034%=      5-min Rain = 0
KMD1 192242Z 17010KT 25/08 A2989 RMK A01 T02500084  RH  035%=      5-min Rain = 0
KMD1 192243Z 17009KT 25/09 A2989 RMK A01 T02490087  RH  036%=      5-min Rain = 0
KMD1 192244Z 16010KT 25/09 A2989 RMK A01 T02480087  RH  036%=      5-min Rain = 0
KMD1 192245Z 17008KT 25/09 A2989 RMK A01 T02480088  RH  036%=      5-min Rain = 0
KMD1 192246Z 17009KT 25/09 A2989 RMK A01 T02470087  RH  036%=      5-min Rain = 0
KMD1 192247Z 17007KT 25/09 A299 RMK A01 T02470088  RH  036%=      5-min Rain = 0
KMD1 192248Z 16006KT 25/09 A299 RMK A01 T02470088  RH  036%=      5-min Rain = 0
KMD1 192249Z 16006KT 25/09 A299 RMK A01 T02470089  RH  037%=      5-min Rain = 0
KMD1 192250Z 16010KT 25/09 A299 RMK A01 T02470089  RH  037%=      5-min Rain = 0
KMD1 192251Z 16012KT 25/09 A299 RMK A01 T02460089  RH  037%=      5-min Rain = 0
KMD1 192252Z 16010KT 25/09 A299 RMK A01 T02450089  RH  037%=      5-min Rain = 0
KMD1 192253Z 15011KT 24/09 A299 RMK A01 T02440089  RH  037%=      5-min Rain = 0
KMD1 192254Z 16010KT 24/09 A299 RMK A01 T02430089  RH  038%=      5-min Rain = 0
KMD1 192255Z 15010KT 24/09 A299 RMK A01 T02420089  RH  038%=      5-min Rain = 0
KMD1 192256Z 15009KT 24/09 A299 RMK A01 T02410089  RH  038%=      5-min Rain = 0
KMD1 192257Z 15009KT 24/09 A299 RMK A01 T02400089  RH  038%=      5-min Rain = 0
KMD1 192258Z 16009KT 24/09 A299 RMK A01 T02390089  RH  038%=      5-min Rain = 0
KMD1 192259Z 15009KT 24/09 A299 RMK A01 T02390089  RH  038%=      5-min Rain = 0
KMD1 192300Z 14008KT 24/09 A299 RMK A01 T02380089  RH  039%=      5-min Rain = 0
KMD1 192301Z 15007KT 24/09 A299 RMK A01 T02380089  RH  039%=      5-min Rain = 0
KMD1 192302Z 15009KT 24/09 A299 RMK A01 T02370089  RH  039%=      5-min Rain = 0
KMD1 192303Z 14007KT 24/09 A299 RMK A01 T02360090  RH  039%=      5-min Rain = 0
KMD1 192304Z 14007KT 24/09 A299 RMK A01 T02350089  RH  039%=      5-min Rain = 0
KMD1 192305Z 15008KT 24/09 A299 RMK A01 T02350090  RH  040%=      5-min Rain = 0
KMD1 192306Z 15007KT 23/09 A299 RMK A01 T02340090  RH  040%=      5-min Rain = 0
KMD1 192307Z 15007KT 23/09 A299 RMK A01 T02330090  RH  040%=      5-min Rain = 0
KMD1 192308Z 16007KT 23/09 A299 RMK A01 T02320090  RH  040%=      5-min Rain = 0
KMD1 192309Z 16007KT 23/09 A299 RMK A01 T02320090  RH  040%=      5-min Rain = 0
KMD1 192310Z 17006KT 23/09 A299 RMK A01 T02310091  RH  041%=      5-min Rain = 0
KMD1 192311Z 17007KT 23/09 A299 RMK A01 T02310090  RH  041%=      5-min Rain = 0
KMD1 192312Z 17009KT 23/09 A299 RMK A01 T02310090  RH  041%=      5-min Rain = 0
KMD1 192313Z 17011KT 23/09 A299 RMK A01 T02310091  RH  041%=      5-min Rain = 0
KMD1 192314Z 16010KT 23/09 A299 RMK A01 T02310092  RH  041%=      5-min Rain = 0
KMD1 192315Z 16008KT 23/09 A299 RMK A01 T02310092  RH  041%=      5-min Rain = 0
KMD1 192316Z 17008KT 23/09 A299 RMK A01 T02310092  RH  041%=      5-min Rain = 0
KMD1 192317Z 17007KT 23/09 A299 RMK A01 T02300092  RH  041%=      5-min Rain = 0
KMD1 192318Z 16007KT 23/09 A299 RMK A01 T02300092  RH  041%=      5-min Rain = 0
KMD1 192319Z 16009KT 23/09 A299 RMK A01 T02290091  RH  041%=      5-min Rain = 0
KMD1 192320Z 16010KT 23/09 A299 RMK A01 T02290091  RH  041%=      5-min Rain = 0
KMD1 192321Z 16008KT 23/09 A299 RMK A01 T02290091  RH  042%=      5-min Rain = 0
KMD1 192322Z 16007KT 23/09 A299 RMK A01 T02290092  RH  042%=      5-min Rain = 0
KMD1 192323Z 16007KT 23/09 A299 RMK A01 T02280091  RH  042%=      5-min Rain = 0
KMD1 192324Z 16009KT 23/09 A299 RMK A01 T02270091  RH  042%=      5-min Rain = 0
KMD1 192325Z 16007KT 23/09 A299 RMK A01 T02270092  RH  042%=      5-min Rain = 0
KMD1 192326Z 15007KT 23/09 A299 RMK A01 T02270091  RH  042%=      5-min Rain = 0
KMD1 192327Z 16007KT 23/09 A299 RMK A01 T02260091  RH  042%=      5-min Rain = 0
KMD1 192328Z 15007KT 22/09 A299 RMK A01 T02240091  RH  043%=      5-min Rain = 0
KMD1 192329Z 15007KT 22/09 A299 RMK A01 T02230091  RH  043%=      5-min Rain = 0
KMD1 192330Z 15007KT 22/09 A299 RMK A01 T02230091  RH  043%=      5-min Rain = 0
KMD1 192331Z 15008KT 22/09 A299 RMK A01 T02230091  RH  043%=      5-min Rain = 0
KMD1 192332Z 16007KT 22/09 A299 RMK A01 T02220090  RH  043%=      5-min Rain = 0
KMD1 192333Z 16006KT 22/09 A299 RMK A01 T02220090  RH  043%=      5-min Rain = 0
KMD1 192334Z 16007KT 22/09 A299 RMK A01 T02210090  RH  043%=      5-min Rain = 0
KMD1 192335Z 16006KT 22/09 A299 RMK A01 T02210090  RH  043%=      5-min Rain = 0
KMD1 192336Z 16007KT 22/09 A299 RMK A01 T02200090  RH  043%=      5-min Rain = 0
KMD1 192337Z 15008KT 22/09 A299 RMK A01 T02190090  RH  044%=      5-min Rain = 0
KMD1 192338Z 15007KT 22/09 A299 RMK A01 T02190090  RH  044%=      5-min Rain = 0
KMD1 192339Z 16007KT 22/09 A299 RMK A01 T02190090  RH  044%=      5-min Rain = 0
KMD1 192340Z 16007KT 22/09 A299 RMK A01 T02180089  RH  044%=      5-min Rain = 0
KMD1 192341Z 16009KT 22/09 A299 RMK A01 T02190090  RH  044%=      5-min Rain = 0
KMD1 192342Z 16008KT 22/09 A299 RMK A01 T02200090  RH  044%=      5-min Rain = 0
KMD1 192343Z 16008KT 22/09 A299 RMK A01 T02200090  RH  043%=      5-min Rain = 0
KMD1 192344Z 16007KT 22/09 A299 RMK A01 T02200090  RH  043%=      5-min Rain = 0
KMD1 192345Z 16007KT 22/09 A299 RMK A01 T02190090  RH  044%=      5-min Rain = 0
KMD1 192346Z 17007KT 22/09 A299 RMK A01 T02180090  RH  044%=      5-min Rain = 0
KMD1 192347Z 16006KT 22/09 A299 RMK A01 T02170090  RH  044%=      5-min Rain = 0
KMD1 192348Z 16007KT 22/09 A299 RMK A01 T02160089  RH  044%=      5-min Rain = 0
KMD1 192349Z 16007KT 22/09 A299 RMK A01 T02150089  RH  045%=      5-min Rain = 0
KMD1 192350Z 16007KT 21/09 A299 RMK A01 T02140089  RH  045%=      5-min Rain = 0
KMD1 192351Z 16006KT 21/09 A299 RMK A01 T02140089  RH  045%=      5-min Rain = 0
KMD1 192352Z 16006KT 21/09 A299 RMK A01 T02140089  RH  045%=      5-min Rain = 0
KMD1 192353Z 16006KT 21/09 A299 RMK A01 T02130089  RH  045%=      5-min Rain = 0
KMD1 192354Z 15006KT 21/09 A299 RMK A01 T02130089  RH  045%=      5-min Rain = 0
KMD1 192355Z 15006KT 21/09 A299 RMK A01 T02120089  RH  045%=      5-min Rain = 0
KMD1 192356Z 16007KT 21/09 A299 RMK A01 T02110088  RH  045%=      5-min Rain = 0
KMD1 192357Z 15007KT 21/09 A299 RMK A01 T02100088  RH  045%=      5-min Rain = 0
KMD1 192358Z 16008KT 21/09 A299 RMK A01 T02110088  RH  045%=      5-min Rain = 0
KMD1 192359Z 16007KT 21/09 A299 RMK A01 T02110088  RH  045%=      5-min Rain = 0
KMD1 200000Z 15007KT 21/09 A299 RMK A01 T02110087  RH  045%=      5-min Rain = 0
KMD1 200001Z 16006KT 21/09 A299 RMK A01 T02110087  RH  045%=      5-min Rain = 0
KMD1 200002Z 16006KT 21/09 A299 RMK A01 T02100087  RH  045%=      5-min Rain = 0
KMD1 200003Z 16006KT 21/09 A299 RMK A01 T02090087  RH  045%=      5-min Rain = 0
KMD1 200004Z 15008KT 21/09 A299 RMK A01 T02090087  RH  045%=      5-min Rain = 0
KMD1 200005Z 15006KT 21/09 A299 RMK A01 T02100087  RH  045%=      5-min Rain = 0
KMD1 200006Z 15006KT 21/09 A299 RMK A01 T02100086  RH  045%=      5-min Rain = 0
KMD1 200007Z 15007KT 21/09 A299 RMK A01 T02100086  RH  045%=      5-min Rain = 0
KMD1 200008Z 15006KT 21/09 A299 RMK A01 T02090086  RH  045%=      5-min Rain = 0
KMD1 200009Z 15006KT 21/09 A299 RMK A01 T02080086  RH  045%=      5-min Rain = 0
KMD1 200010Z 15006KT 21/09 A299 RMK A01 T02080086  RH  045%=      5-min Rain = 0
KMD1 200011Z 16006KT 21/09 A299 RMK A01 T02080086  RH  045%=      5-min Rain = 0
KMD1 200012Z 16006KT 21/09 A299 RMK A01 T02070085  RH  046%=      5-min Rain = 0
KMD1 200013Z 16006KT 21/09 A299 RMK A01 T02060085  RH  046%=      5-min Rain = 0
KMD1 200014Z 16005KT 21/09 A299 RMK A01 T02060085  RH  046%=      5-min Rain = 0
KMD1 200015Z 16006KT 21/09 A299 RMK A01 T02050085  RH  046%=      5-min Rain = 0
KMD1 200016Z 16006KT 21/09 A299 RMK A01 T02050085  RH  046%=      5-min Rain = 0
KMD1 200017Z 16006KT 20/09 A299 RMK A01 T02040085  RH  046%=      5-min Rain = 0
KMD1 200018Z 16005KT 20/08 A299 RMK A01 T02040084  RH  046%=      5-min Rain = 0
KMD1 200019Z 16006KT 20/08 A299 RMK A01 T02040084  RH  046%=      5-min Rain = 0
KMD1 200020Z 17005KT 20/08 A2991 RMK A01 T02040084  RH  046%=      5-min Rain = 0
KMD1 200021Z 17005KT 20/08 A2991 RMK A01 T02030084  RH  046%=      5-min Rain = 0
KMD1 200022Z 17005KT 20/08 A2991 RMK A01 T02020084  RH  047%=      5-min Rain = 0
KMD1 200023Z 17004KT 20/08 A2991 RMK A01 T02020084  RH  047%=      5-min Rain = 0
KMD1 200024Z 17005KT 20/08 A2991 RMK A01 T02020084  RH  046%=      5-min Rain = 0
KMD1 200025Z 17006KT 20/08 A2991 RMK A01 T02010084  RH  047%=      5-min Rain = 0
KMD1 200026Z 17006KT 20/08 A2991 RMK A01 T02000083  RH  047%=      5-min Rain = 0
KMD1 200027Z 16006KT 20/08 A2991 RMK A01 T02000083  RH  047%=      5-min Rain = 0
KMD1 200028Z 17005KT 20/08 A299 RMK A01 T02000083  RH  047%=      5-min Rain = 0
KMD1 200029Z 17007KT 20/08 A299 RMK A01 T02000083  RH  047%=      5-min Rain = 0
KMD1 200030Z 17006KT 20/08 A299 RMK A01 T02000083  RH  047%=      5-min Rain = 0
KMD1 200031Z 17005KT 20/08 A299 RMK A01 T02000083  RH  047%=      5-min Rain = 0
KMD1 200032Z 16006KT 20/08 A299 RMK A01 T01990083  RH  047%=      5-min Rain = 0
KMD1 200033Z 16007KT 20/08 A299 RMK A01 T01990083  RH  047%=      5-min Rain = 0
KMD1 200034Z 16006KT 20/08 A299 RMK A01 T01980083  RH  047%=      5-min Rain = 0
KMD1 200035Z 16006KT 20/08 A299 RMK A01 T01980083  RH  047%=      5-min Rain = 0
KMD1 200036Z 16005KT 20/08 A299 RMK A01 T01980083  RH  047%=      5-min Rain = 0
KMD1 200037Z 16005KT 20/08 A299 RMK A01 T01970083  RH  048%=      5-min Rain = 0
KMD1 200038Z 16005KT 20/08 A299 RMK A01 T01960082  RH  048%=      5-min Rain = 0
KMD1 200039Z 16005KT 20/08 A299 RMK A01 T01950082  RH  048%=      5-min Rain = 0
KMD1 200040Z 16004KT 20/08 A2991 RMK A01 T01950082  RH  048%=      5-min Rain = 0
KMD1 200041Z 16004KT 20/08 A2991 RMK A01 T01950082  RH  048%=      5-min Rain = 0
KMD1 200042Z 15004KT 19/08 A2991 RMK A01 T01940082  RH  048%=      5-min Rain = 0
KMD1 200043Z 15005KT 19/08 A2991 RMK A01 T01930082  RH  049%=      5-min Rain = 0
KMD1 200044Z 16004KT 19/08 A2991 RMK A01 T01930082  RH  048%=      5-min Rain = 0
KMD1 200045Z 16004KT 19/08 A2991 RMK A01 T01920082  RH  049%=      5-min Rain = 0
KMD1 200046Z 16004KT 19/08 A2991 RMK A01 T01930082  RH  049%=      5-min Rain = 0
KMD1 200047Z 16005KT 19/08 A2992 RMK A01 T01920082  RH  049%=      5-min Rain = 0
KMD1 200048Z 16003KT 19/08 A2992 RMK A01 T01920082  RH  049%=      5-min Rain = 0
KMD1 200049Z 17003KT 19/08 A2992 RMK A01 T01920082  RH  049%=      5-min Rain = 0
KMD1 200050Z 16003KT 19/08 A2992 RMK A01 T01920082  RH  049%=      5-min Rain = 0
KMD1 200051Z 16004KT 19/08 A2992 RMK A01 T01920082  RH  049%=      5-min Rain = 0
KMD1 200052Z 16004KT 19/08 A2991 RMK A01 T01910082  RH  049%=      5-min Rain = 0
KMD1 200053Z 16004KT 19/08 A2991 RMK A01 T01910082  RH  049%=      5-min Rain = 0
KMD1 200054Z 16004KT 19/08 A2991 RMK A01 T01910082  RH  049%=      5-min Rain = 0
KMD1 200055Z 16004KT 19/08 A2991 RMK A01 T01900082  RH  049%=      5-min Rain = 0
KMD1 200056Z 15005KT 19/08 A2991 RMK A01 T01880082  RH  050%=      5-min Rain = 0
KMD1 200057Z 16004KT 19/08 A2991 RMK A01 T01880083  RH  050%=      5-min Rain = 0
KMD1 200058Z 15005KT 19/08 A2991 RMK A01 T01870082  RH  050%=      5-min Rain = 0
KMD1 200059Z 15006KT 19/08 A2991 RMK A01 T01870083  RH  051%=      5-min Rain = 0
KMD1 200100Z 16004KT 19/08 A2991 RMK A01 T01870083  RH  051%=      5-min Rain = 0
KMD1 200101Z 16004KT 19/08 A2991 RMK A01 T01870083  RH  051%=      5-min Rain = 0
KMD1 200102Z 16004KT 19/08 A2991 RMK A01 T01860083  RH  051%=      5-min Rain = 0
KMD1 200103Z 16006KT 19/08 A2991 RMK A01 T01860083  RH  051%=      5-min Rain = 0
KMD1 200104Z 15007KT 19/08 A2991 RMK A01 T01850084  RH  052%=      5-min Rain = 0
KMD1 200105Z 16007KT 19/08 A2991 RMK A01 T01850084  RH  052%=      5-min Rain = 0
KMD1 200106Z 16007KT 19/09 A2991 RMK A01 T01870085  RH  051%=      5-min Rain = 0
KMD1 200107Z 16007KT 19/09 A2991 RMK A01 T01880085  RH  051%=      5-min Rain = 0
KMD1 200108Z 15007KT 19/08 A2992 RMK A01 T01900084  RH  050%=      5-min Rain = 0
KMD1 200109Z 17007KT 19/09 A2992 RMK A01 T01910085  RH  050%=      5-min Rain = 0
KMD1 200110Z 16006KT 19/09 A2992 RMK A01 T01910085  RH  050%=      5-min Rain = 0
KMD1 200111Z 16006KT 19/09 A2992 RMK A01 T01910085  RH  050%=      5-min Rain = 0
KMD1 200112Z 17007KT 19/09 A2992 RMK A01 T01900085  RH  050%=      5-min Rain = 0
KMD1 200113Z 16008KT 19/09 A2992 RMK A01 T01900085  RH  050%=      5-min Rain = 0
KMD1 200114Z 17008KT 19/09 A2992 RMK A01 T01910085  RH  050%=      5-min Rain = 0
KMD1 200115Z 16008KT 19/09 A2992 RMK A01 T01920085  RH  050%=      5-min Rain = 0
KMD1 200116Z 17006KT 19/09 A2992 RMK A01 T01920085  RH  050%=      5-min Rain = 0
KMD1 200117Z 16008KT 19/09 A2992 RMK A01 T01920085  RH  050%=      5-min Rain = 0
KMD1 200118Z 16009KT 19/09 A2991 RMK A01 T01910085  RH  050%=      5-min Rain = 0
KMD1 200119Z 17008KT 19/09 A2992 RMK A01 T01920085  RH  050%=      5-min Rain = 0
KMD1 200120Z 16007KT 19/09 A2992 RMK A01 T01920085  RH  050%=      5-min Rain = 0
KMD1 200121Z 17007KT 19/09 A2992 RMK A01 T01920086  RH  050%=      5-min Rain = 0
KMD1 200122Z 17006KT 19/09 A2992 RMK A01 T01930086  RH  050%=      5-min Rain = 0
KMD1 200123Z 16008KT 19/09 A2992 RMK A01 T01910085  RH  050%=      5-min Rain = 0
KMD1 200124Z 17006KT 19/09 A2992 RMK A01 T01910086  RH  050%=      5-min Rain = 0
KMD1 200125Z 17005KT 19/09 A2992 RMK A01 T01920086  RH  050%=      5-min Rain = 0
KMD1 200126Z 16008KT 19/09 A2992 RMK A01 T01900085  RH  051%=      5-min Rain = 0
KMD1 200127Z 17007KT 19/09 A2992 RMK A01 T01900086  RH  051%=      5-min Rain = 0
KMD1 200128Z 17007KT 19/09 A2992 RMK A01 T01920086  RH  050%=      5-min Rain = 0
KMD1 200129Z 17007KT 19/09 A2992 RMK A01 T01920086  RH  050%=      5-min Rain = 0
KMD1 200130Z 16009KT 19/09 A2992 RMK A01 T01920087  RH  050%=      5-min Rain = 0
KMD1 200131Z 15007G12KT 19/09 A2992 RMK A01 T01920087  RH  050%=      5-min Rain = 0
KMD1 200132Z 16008KT 19/09 A2992 RMK A01 T01930087  RH  050%=      5-min Rain = 0
KMD1 200133Z 16007KT 19/09 A2992 RMK A01 T01920087  RH  050%=      5-min Rain = 0
KMD1 200134Z 16008KT 19/09 A2992 RMK A01 T01920087  RH  051%=      5-min Rain = 0
KMD1 200135Z 16008KT 19/09 A2992 RMK A01 T01920087  RH  051%=      5-min Rain = 0
KMD1 200136Z 16007KT 19/09 A2992 RMK A01 T01920087  RH  051%=      5-min Rain = 0
KMD1 200137Z 16008KT 19/09 A2992 RMK A01 T01920087  RH  051%=      5-min Rain = 0
KMD1 200138Z 16009KT 19/09 A2992 RMK A01 T01920087  RH  051%=      5-min Rain = 0
KMD1 200139Z 16010KT 19/09 A2992 RMK A01 T01930088  RH  051%=      5-min Rain = 0
KMD1 200140Z 16010KT 19/09 A2992 RMK A01 T01930088  RH  051%=      5-min Rain = 0
KMD1 200141Z 17010KT 19/09 A2992 RMK A01 T01940089  RH  050%=      5-min Rain = 0
KMD1 200142Z 16010KT 19/09 A2992 RMK A01 T01940089  RH  050%=      5-min Rain = 0
KMD1 200143Z 17009KT 19/09 A2992 RMK A01 T01940089  RH  051%=      5-min Rain = 0
KMD1 200144Z 16009KT 19/09 A2992 RMK A01 T01930089  RH  051%=      5-min Rain = 0
KMD1 200145Z 16009KT 19/09 A2992 RMK A01 T01930089  RH  051%=      5-min Rain = 0
KMD1 200146Z 16007G12KT 19/09 A2992 RMK A01 T01930089  RH  051%=      5-min Rain = 0
KMD1 200147Z 16005KT 19/09 A2992 RMK A01 T01920089  RH  051%=      5-min Rain = 0
KMD1 200148Z 16006KT 19/09 A2992 RMK A01 T01910089  RH  051%=      5-min Rain = 0
KMD1 200149Z 17009KT 19/09 A2992 RMK A01 T01900089  RH  052%=      5-min Rain = 0
KMD1 200150Z 17007KT 19/09 A2992 RMK A01 T01910089  RH  051%=      5-min Rain = 0
KMD1 200151Z 17007KT 19/09 A2992 RMK A01 T01910089  RH  052%=      5-min Rain = 0
KMD1 200152Z 17006KT 19/09 A2992 RMK A01 T01900089  RH  052%=      5-min Rain = 0
KMD1 200153Z 17007KT 19/09 A2993 RMK A01 T01900089  RH  052%=      5-min Rain = 0
KMD1 200154Z 18005KT 19/09 A2993 RMK A01 T01890089  RH  052%=      5-min Rain = 0
KMD1 200155Z 18006KT 19/09 A2993 RMK A01 T01880089  RH  052%=      5-min Rain = 0
KMD1 200156Z 18005KT 19/09 A2993 RMK A01 T01880089  RH  053%=      5-min Rain = 0
KMD1 200157Z 17004KT 19/09 A2993 RMK A01 T01880089  RH  053%=      5-min Rain = 0
KMD1 200158Z 18004KT 19/09 A2993 RMK A01 T01870089  RH  053%=      5-min Rain = 0
KMD1 200159Z 17004KT 19/09 A2993 RMK A01 T01870089  RH  053%=      5-min Rain = 0
KMD1 200200Z 16006KT 19/09 A2993 RMK A01 T01860089  RH  053%=      5-min Rain = 0
KMD1 200201Z 17005KT 19/09 A2993 RMK A01 T01860089  RH  053%=      5-min Rain = 0
KMD1 200202Z 17004KT 19/09 A2993 RMK A01 T01860089  RH  053%=      5-min Rain = 0
KMD1 200203Z 17004KT 19/09 A2993 RMK A01 T01860089  RH  053%=      5-min Rain = 0
KMD1 200204Z 15006KT 19/09 A2993 RMK A01 T01860089  RH  053%=      5-min Rain = 0
KMD1 200205Z 16003KT 19/09 A2993 RMK A01 T01860089  RH  053%=      5-min Rain = 0
KMD1 200206Z 16004KT 19/09 A2993 RMK A01 T01850089  RH  053%=      5-min Rain = 0
KMD1 200207Z 15004KT 18/09 A2993 RMK A01 T01840088  RH  054%=      5-min Rain = 0
KMD1 200208Z 14003KT 18/09 A2993 RMK A01 T01820089  RH  054%=      5-min Rain = 0
KMD1 200209Z 14004KT 18/09 A2993 RMK A01 T01810088  RH  054%=      5-min Rain = 0
KMD1 200210Z 13005KT 18/09 A2993 RMK A01 T01810088  RH  054%=      5-min Rain = 0
KMD1 200211Z 13004KT 18/09 A2993 RMK A01 T01820088  RH  054%=      5-min Rain = 0
KMD1 200212Z 14004KT 18/09 A2993 RMK A01 T01810088  RH  054%=      5-min Rain = 0
KMD1 200213Z 14005KT 18/09 A2993 RMK A01 T01810088  RH  055%=      5-min Rain = 0
KMD1 200214Z 13004KT 18/09 A2993 RMK A01 T01800088  RH  055%=      5-min Rain = 0
KMD1 200215Z 14004KT 18/09 A2993 RMK A01 T01800089  RH  055%=      5-min Rain = 0
KMD1 200216Z 14003KT 18/09 A2993 RMK A01 T01790088  RH  055%=      5-min Rain = 0
KMD1 200217Z 14004KT 18/09 A2993 RMK A01 T01780088  RH  056%=      5-min Rain = 0
KMD1 200218Z 14004KT 18/09 A2993 RMK A01 T01780089  RH  056%=      5-min Rain = 0
KMD1 200219Z 13004KT 18/09 A2993 RMK A01 T01780089  RH  056%=      5-min Rain = 0
KMD1 200220Z 13004KT 18/09 A2993 RMK A01 T01780088  RH  056%=      5-min Rain = 0
KMD1 200221Z 13004KT 18/09 A2993 RMK A01 T01780088  RH  056%=      5-min Rain = 0
KMD1 200222Z 13004KT 18/09 A2993 RMK A01 T01770088  RH  056%=      5-min Rain = 0
KMD1 200223Z 13004KT 18/09 A2993 RMK A01 T01760089  RH  056%=      5-min Rain = 0
KMD1 200224Z 13005KT 18/09 A2993 RMK A01 T01760089  RH  057%=      5-min Rain = 0
KMD1 200225Z 13006KT 18/09 A2993 RMK A01 T01760089  RH  056%=      5-min Rain = 0
KMD1 200226Z 13005KT 18/09 A2993 RMK A01 T01770090  RH  056%=      5-min Rain = 0
KMD1 200227Z 12004KT 18/09 A2993 RMK A01 T01780089  RH  056%=      5-min Rain = 0
KMD1 200228Z 11005KT 18/09 A2993 RMK A01 T01780089  RH  056%=      5-min Rain = 0
KMD1 200229Z 11004KT 18/09 A2993 RMK A01 T01780089  RH  056%=      5-min Rain = 0
KMD1 200230Z 10004KT 18/09 A2992 RMK A01 T01770089  RH  056%=      5-min Rain = 0
KMD1 200231Z 09003KT 18/09 A2992 RMK A01 T01750088  RH  057%=      5-min Rain = 0
KMD1 200232Z 09004KT 17/09 A2992 RMK A01 T01740089  RH  057%=      5-min Rain = 0
KMD1 200233Z 11003KT 17/09 A2992 RMK A01 T01740089  RH  057%=      5-min Rain = 0
KMD1 200234Z 13003KT 17/09 A2993 RMK A01 T01730088  RH  057%=      5-min Rain = 0
KMD1 200235Z 12003KT 17/09 A2993 RMK A01 T01730088  RH  058%=      5-min Rain = 0
KMD1 200236Z 12003KT 17/09 A2993 RMK A01 T01720089  RH  058%=      5-min Rain = 0
KMD1 200237Z 11003KT 17/09 A2993 RMK A01 T01720089  RH  058%=      5-min Rain = 0
KMD1 200238Z 12005KT 17/09 A2993 RMK A01 T01710089  RH  058%=      5-min Rain = 0
KMD1 200239Z 11004KT 17/09 A2993 RMK A01 T01700089  RH  059%=      5-min Rain = 0
KMD1 200240Z 12005KT 17/09 A2993 RMK A01 T01690089  RH  059%=      5-min Rain = 0
KMD1 200241Z 13007KT 17/09 A2993 RMK A01 T01690091  RH  060%=      5-min Rain = 0
KMD1 200242Z 13006KT 17/09 A2993 RMK A01 T01700093  RH  060%=      5-min Rain = 0
KMD1 200243Z 13005KT 17/09 A2993 RMK A01 T01720092  RH  060%=      5-min Rain = 0
KMD1 200244Z 13005KT 17/09 A2993 RMK A01 T01720092  RH  059%=      5-min Rain = 0
KMD1 200245Z 13006KT 17/09 A2993 RMK A01 T01720093  RH  060%=      5-min Rain = 0
KMD1 200246Z 14006KT 17/10 A2993 RMK A01 T01720095  RH  060%=      5-min Rain = 0
KMD1 200247Z 13005KT 17/10 A2993 RMK A01 T01730095  RH  060%=      5-min Rain = 0
KMD1 200248Z 12004KT 17/09 A2993 RMK A01 T01720094  RH  060%=      5-min Rain = 0
KMD1 200249Z 13004KT 17/09 A2993 RMK A01 T01710094  RH  060%=      5-min Rain = 0
KMD1 200250Z 12005KT 17/09 A2993 RMK A01 T01700093  RH  061%=      5-min Rain = 0
KMD1 200251Z 12005KT 17/09 A2993 RMK A01 T01700094  RH  061%=      5-min Rain = 0
KMD1 200252Z 13004KT 17/09 A2993 RMK A01 T01700094  RH  061%=      5-min Rain = 0
KMD1 200253Z 13005KT 17/10 A2993 RMK A01 T01700096  RH  062%=      5-min Rain = 0
KMD1 200254Z 13005KT 17/10 A2993 RMK A01 T01700098  RH  062%=      5-min Rain = 0
KMD1 200255Z 13005KT 17/10 A2992 RMK A01 T01700098  RH  062%=      5-min Rain = 0
KMD1 200256Z 13004KT 17/10 A2992 RMK A01 T01700098  RH  062%=      5-min Rain = 0
KMD1 200257Z 13004KT 17/10 A2992 RMK A01 T01700097  RH  062%=      5-min Rain = 0
KMD1 200258Z 12005KT 17/10 A2992 RMK A01 T01690098  RH  063%=      5-min Rain = 0
KMD1 200259Z 12004KT 17/10 A2993 RMK A01 T01690098  RH  063%=      5-min Rain = 0
KMD1 200300Z 14005KT 17/10 A2993 RMK A01 T01690100  RH  064%=      5-min Rain = 0
KMD1 200301Z 13004KT 17/10 A2993 RMK A01 T01700101  RH  064%=      5-min Rain = 0
KMD1 200302Z 13003KT 17/10 A2993 RMK A01 T01700100  RH  063%=      5-min Rain = 0
KMD1 200303Z 11004KT 17/10 A2993 RMK A01 T01700100  RH  063%=      5-min Rain = 0
KMD1 200304Z 12004KT 17/10 A2993 RMK A01 T01700101  RH  064%=      5-min Rain = 0
KMD1 200305Z 13005KT 17/10 A2993 RMK A01 T01690101  RH  064%=      5-min Rain = 0
KMD1 200306Z 13003KT 17/10 A2993 RMK A01 T01690103  RH  065%=      5-min Rain = 0
KMD1 200307Z 13002KT 17/10 A2993 RMK A01 T01690102  RH  064%=      5-min Rain = 0
KMD1 200308Z 16004KT 17/10 A2993 RMK A01 T01690103  RH  065%=      5-min Rain = 0
KMD1 200309Z 17005KT 17/11 A2993 RMK A01 T01700105  RH  065%=      5-min Rain = 0
KMD1 200310Z 14002KT 17/11 A2993 RMK A01 T01710105  RH  065%=      5-min Rain = 0
KMD1 200311Z 12002KT 17/11 A2994 RMK A01 T01720105  RH  065%=      5-min Rain = 0
KMD1 200312Z 14002KT 17/11 A2994 RMK A01 T01730105  RH  064%=      5-min Rain = 0
KMD1 200313Z 13002KT 17/11 A2994 RMK A01 T01730105  RH  065%=      5-min Rain = 0
KMD1 200314Z 16001KT 17/11 A2994 RMK A01 T01730106  RH  065%=      5-min Rain = 0
KMD1 200315Z 17001KT 17/11 A2994 RMK A01 T01720106  RH  065%=      5-min Rain = 0
KMD1 200316Z 18003KT 17/11 A2994 RMK A01 T01720106  RH  065%=      5-min Rain = 0
KMD1 200317Z 16004KT 17/11 A2994 RMK A01 T01720107  RH  066%=      5-min Rain = 0
KMD1 200318Z 19001KT 17/11 A2994 RMK A01 T01720107  RH  066%=      5-min Rain = 0
KMD1 200319Z 15003KT 17/11 A2994 RMK A01 T01720108  RH  066%=      5-min Rain = 0
KMD1 200320Z 15003KT 17/11 A2994 RMK A01 T01720109  RH  066%=      5-min Rain = 0
KMD1 200321Z 15005G10KT 17/11 A2994 RMK A01 T01720110  RH  067%=      5-min Rain = 0
KMD1 200322Z 16008KT 17/11 A2994 RMK A01 T01730111  RH  067%=      5-min Rain = 0
KMD1 200323Z 16007KT 17/11 A2994 RMK A01 T01740111  RH  066%=      5-min Rain = 0
KMD1 200324Z 17005KT 18/11 A2994 RMK A01 T01750112  RH  066%=      5-min Rain = 0
KMD1 200325Z 17004KT 18/11 A2994 RMK A01 T01750112  RH  067%=      5-min Rain = 0
KMD1 200326Z 15005KT 18/11 A2994 RMK A01 T01750112  RH  066%=      5-min Rain = 0
KMD1 200327Z 16005KT 18/11 A2994 RMK A01 T01760113  RH  066%=      5-min Rain = 0
KMD1 200328Z 15004KT 18/11 A2994 RMK A01 T01750113  RH  067%=      5-min Rain = 0
KMD1 200329Z 14004KT 18/11 A2994 RMK A01 T01750113  RH  067%=      5-min Rain = 0
KMD1 200330Z 15006KT 18/11 A2993 RMK A01 T01750113  RH  067%=      5-min Rain = 0
KMD1 200331Z 17005KT 18/11 A2993 RMK A01 T01760113  RH  067%=      5-min Rain = 0
KMD1 200332Z 17008KT 18/11 A2993 RMK A01 T01750114  RH  067%=      5-min Rain = 0
KMD1 200333Z 18006KT 18/12 A2994 RMK A01 T01750115  RH  067%=      5-min Rain = 0
KMD1 200334Z 16007KT 18/12 A2994 RMK A01 T01750115  RH  068%=      5-min Rain = 0
KMD1 200335Z 15007KT 18/12 A2994 RMK A01 T01760115  RH  068%=      5-min Rain = 0
KMD1 200336Z 17005KT 18/11 A2994 RMK A01 T01760114  RH  067%=      5-min Rain = 0
KMD1 200337Z 17006KT 18/12 A2994 RMK A01 T01750115  RH  068%=      5-min Rain = 0
KMD1 200338Z 16008KT 17/12 A2994 RMK A01 T01740116  RH  068%=      5-min Rain = 0
KMD1 200339Z 15006KT 17/12 A2993 RMK A01 T01740116  RH  069%=      5-min Rain = 0
KMD1 200340Z 17006KT 18/12 A2993 RMK A01 T01750116  RH  068%=      5-min Rain = 0
KMD1 200341Z 16005KT 17/12 A2993 RMK A01 T01740116  RH  069%=      5-min Rain = 0
KMD1 200342Z 16008KT 18/12 A2993 RMK A01 T01750117  RH  069%=      5-min Rain = 0
KMD1 200343Z 16007KT 18/12 A2993 RMK A01 T01750117  RH  069%=      5-min Rain = 0
KMD1 200344Z 17007KT 18/12 A2994 RMK A01 T01750117  RH  069%=      5-min Rain = 0
KMD1 200345Z 16006KT 17/12 A2993 RMK A01 T01740117  RH  069%=      5-min Rain = 0
KMD1 200346Z 15006KT 17/12 A2994 RMK A01 T01730117  RH  069%=      5-min Rain = 0
KMD1 200347Z 15006KT 17/12 A2993 RMK A01 T01740118  RH  069%=      5-min Rain = 0
KMD1 200348Z 17007KT 17/12 A2993 RMK A01 T01740118  RH  069%=      5-min Rain = 0
KMD1 200349Z 18005KT 17/12 A2993 RMK A01 T01740118  RH  069%=      5-min Rain = 0
KMD1 200350Z 17006KT 17/12 A2994 RMK A01 T01740118  RH  069%=      5-min Rain = 0
KMD1 200351Z 18008KT 17/12 A2993 RMK A01 T01740118  RH  070%=      5-min Rain = 0
KMD1 200352Z 16007KT 17/12 A2993 RMK A01 T01740119  RH  070%=      5-min Rain = 0
KMD1 200353Z 16008KT 17/12 A2993 RMK A01 T01740119  RH  070%=      5-min Rain = 0
KMD1 200354Z 17009KT 17/12 A2993 RMK A01 T01740119  RH  070%=      5-min Rain = 0
KMD1 200355Z 16007KT 17/12 A2993 RMK A01 T01740119  RH  070%=      5-min Rain = 0
KMD1 200356Z 16007KT 17/12 A2993 RMK A01 T01740119  RH  070%=      5-min Rain = 0
KMD1 200357Z 16007KT 17/12 A2993 RMK A01 T01740119  RH  070%=      5-min Rain = 0
KMD1 200358Z 16009KT 17/12 A2993 RMK A01 T01740119  RH  070%=      5-min Rain = 0
KMD1 200359Z 17008KT 17/12 A2993 RMK A01 T01730119  RH  070%=      5-min Rain = 0
KMD1 200400Z 16007KT 17/12 A2993 RMK A01 T01740120  RH  070%=      5-min Rain = 0
KMD1 200401Z 15007KT 17/12 A2993 RMK A01 T01740119  RH  070%=      5-min Rain = 0
KMD1 200402Z 15006KT 17/12 A2993 RMK A01 T01740119  RH  070%=      5-min Rain = 0
KMD1 200403Z 17003KT 17/12 A2993 RMK A01 T01740119  RH  070%=      5-min Rain = 0
KMD1 200404Z 16006KT 17/12 A2993 RMK A01 T01730119  RH  070%=      5-min Rain = 0
KMD1 200405Z 16006KT 17/12 A2993 RMK A01 T01720119  RH  071%=      5-min Rain = 0
KMD1 200406Z 16006KT 17/12 A2993 RMK A01 T01720119  RH  071%=      5-min Rain = 0
KMD1 200407Z 17007KT 17/12 A2993 RMK A01 T01720119  RH  071%=      5-min Rain = 0
KMD1 200408Z 17005KT 17/12 A2993 RMK A01 T01720119  RH  071%=      5-min Rain = 0
KMD1 200409Z 16006KT 17/12 A2993 RMK A01 T01710119  RH  071%=      5-min Rain = 0
KMD1 200410Z 17007KT 17/12 A2993 RMK A01 T01710119  RH  072%=      5-min Rain = 0
KMD1 200411Z 16010KT 17/12 A2993 RMK A01 T01710119  RH  071%=      5-min Rain = 0
KMD1 200412Z 16008KT 17/12 A2993 RMK A01 T01720119  RH  071%=      5-min Rain = 0
KMD1 200413Z 17010KT 17/12 A2993 RMK A01 T01720120  RH  071%=      5-min Rain = 0
KMD1 200414Z 17007KT 17/12 A2993 RMK A01 T01730119  RH  071%=      5-min Rain = 0
KMD1 200415Z 17007KT 17/12 A2993 RMK A01 T01730119  RH  071%=      5-min Rain = 0
KMD1 200416Z 16009KT 17/12 A2993 RMK A01 T01730119  RH  071%=      5-min Rain = 0
KMD1 200417Z 16008KT 17/12 A2993 RMK A01 T01730119  RH  071%=      5-min Rain = 0
KMD1 200418Z 17006KT 17/12 A2993 RMK A01 T01730120  RH  071%=      5-min Rain = 0
KMD1 200419Z 17007KT 17/12 A2993 RMK A01 T01730119  RH  071%=      5-min Rain = 0
KMD1 200420Z 17006KT 17/12 A2993 RMK A01 T01720119  RH  071%=      5-min Rain = 0
KMD1 200421Z 17005KT 17/12 A2993 RMK A01 T01720119  RH  071%=      5-min Rain = 0
KMD1 200422Z 16007KT 17/12 A2993 RMK A01 T01710119  RH  071%=      5-min Rain = 0
KMD1 200423Z 17007KT 17/12 A2993 RMK A01 T01710120  RH  072%=      5-min Rain = 0
KMD1 200424Z 18005KT 17/12 A2993 RMK A01 T01710119  RH  071%=      5-min Rain = 0
KMD1 200425Z 16008KT 17/12 A2993 RMK A01 T01710118  RH  071%=      5-min Rain = 0
KMD1 200426Z 17010KT 17/12 A2993 RMK A01 T01710119  RH  071%=      5-min Rain = 0
KMD1 200427Z 18008KT 17/12 A2993 RMK A01 T01710119  RH  071%=      5-min Rain = 0
KMD1 200428Z 18007KT 17/12 A2993 RMK A01 T01710119  RH  071%=      5-min Rain = 0
KMD1 200429Z 18005KT 17/12 A2993 RMK A01 T01720118  RH  071%=      5-min Rain = 0
KMD1 200430Z 17005KT 17/12 A2993 RMK A01 T01720119  RH  071%=      5-min Rain = 0
KMD1 200431Z 16009KT 17/12 A2993 RMK A01 T01710119  RH  071%=      5-min Rain = 0
KMD1 200432Z 17008KT 17/12 A2993 RMK A01 T01710119  RH  071%=      5-min Rain = 0
KMD1 200433Z 16006KT 17/12 A2993 RMK A01 T01710119  RH  071%=      5-min Rain = 0
KMD1 200434Z 17006G11KT 17/12 A2993 RMK A01 T01700119  RH  072%=      5-min Rain = 0
KMD1 200435Z 17008KT 17/12 A2993 RMK A01 T01700119  RH  072%=      5-min Rain = 0
KMD1 200436Z 17009KT 17/12 A2993 RMK A01 T01700119  RH  072%=      5-min Rain = 0
KMD1 200437Z 17009KT 17/12 A2993 RMK A01 T01710119  RH  072%=      5-min Rain = 0
KMD1 200438Z 17008KT 17/12 A2993 RMK A01 T01710120  RH  072%=      5-min Rain = 0
KMD1 200439Z 18006KT 17/12 A2993 RMK A01 T01710120  RH  072%=      5-min Rain = 0
KMD1 200440Z 16005KT 17/12 A2993 RMK A01 T01710119  RH  072%=      5-min Rain = 0
KMD1 200441Z 17006KT 17/12 A2993 RMK A01 T01700119  RH  072%=      5-min Rain = 0
KMD1 200442Z 17007KT 17/12 A2993 RMK A01 T01700119  RH  072%=      5-min Rain = 0
KMD1 200443Z 16007KT 17/12 A2993 RMK A01 T01700119  RH  072%=      5-min Rain = 0
KMD1 200444Z 17008KT 17/12 A2993 RMK A01 T01690120  RH  072%=      5-min Rain = 0
KMD1 200445Z 17007KT 17/12 A2993 RMK A01 T01690119  RH  072%=      5-min Rain = 0
KMD1 200446Z 16009KT 17/12 A2992 RMK A01 T01700120  RH  072%=      5-min Rain = 0
KMD1 200447Z 17008KT 17/12 A2992 RMK A01 T01700120  RH  072%=      5-min Rain = 0
KMD1 200448Z 17007KT 17/12 A2993 RMK A01 T01700120  RH  072%=      5-min Rain = 0
KMD1 200449Z 17008KT 17/12 A2992 RMK A01 T01700120  RH  073%=      5-min Rain = 0
KMD1 200450Z 16009KT 17/12 A2992 RMK A01 T01700120  RH  072%=      5-min Rain = 0
KMD1 200451Z 17009KT 17/12 A2992 RMK A01 T01700120  RH  072%=      5-min Rain = 0
KMD1 200452Z 17009KT 17/12 A2992 RMK A01 T01700120  RH  072%=      5-min Rain = 0
KMD1 200453Z 18006KT 17/12 A2993 RMK A01 T01710121  RH  072%=      5-min Rain = 0
KMD1 200454Z 18007KT 17/12 A2992 RMK A01 T01710121  RH  072%=      5-min Rain = 0
KMD1 200455Z 16007KT 17/12 A2992 RMK A01 T01700120  RH  072%=      5-min Rain = 0
KMD1 200456Z 17008KT 17/12 A2992 RMK A01 T01700121  RH  073%=      5-min Rain = 0
KMD1 200457Z 18005KT 17/12 A2992 RMK A01 T01700121  RH  073%=      5-min Rain = 0
KMD1 200458Z 17008KT 17/12 A2992 RMK A01 T01690120  RH  073%=      5-min Rain = 0
KMD1 200459Z 17010KT 17/12 A2992 RMK A01 T01680121  RH  074%=      5-min Rain = 0
KMD1 200500Z 18007KT 17/12 A2992 RMK A01 T01680121  RH  074%=      5-min Rain = 0
KMD1 200501Z 18005KT 17/12 A2992 RMK A01 T01690121  RH  073%=      5-min Rain = 0
KMD1 200502Z 19006KT 17/12 A2992 RMK A01 T01690121  RH  073%=      5-min Rain = 0
KMD1 200503Z 18008KT 17/12 A2992 RMK A01 T01690121  RH  073%=      5-min Rain = 0
KMD1 200504Z 18007KT 17/12 A2992 RMK A01 T01690121  RH  073%=      5-min Rain = 0
KMD1 200505Z 19004KT 17/12 A2992 RMK A01 T01690121  RH  073%=      5-min Rain = 0
KMD1 200506Z 17007KT 17/12 A2992 RMK A01 T01690121  RH  074%=      5-min Rain = 0
KMD1 200507Z 18007KT 17/12 A2993 RMK A01 T01690122  RH  074%=      5-min Rain = 0
KMD1 200508Z 17008KT 17/12 A2993 RMK A01 T01690121  RH  073%=      5-min Rain = 0
KMD1 200509Z 18006KT 17/12 A2993 RMK A01 T01690121  RH  074%=      5-min Rain = 0
KMD1 200510Z 17005KT 17/12 A2993 RMK A01 T01690121  RH  074%=      5-min Rain = 0
KMD1 200511Z 17005KT 17/12 A2993 RMK A01 T01690121  RH  073%=      5-min Rain = 0
KMD1 200512Z 18006KT 17/12 A2993 RMK A01 T01680121  RH  074%=      5-min Rain = 0
KMD1 200513Z 17007KT 17/12 A2993 RMK A01 T01680122  RH  074%=      5-min Rain = 0
KMD1 200514Z 19006KT 17/12 A2993 RMK A01 T01680122  RH  074%=      5-min Rain = 0
KMD1 200515Z 18006KT 17/12 A2993 RMK A01 T01680122  RH  074%=      5-min Rain = 0
KMD1 200516Z 17007KT 17/12 A2993 RMK A01 T01680122  RH  074%=      5-min Rain = 0
KMD1 200517Z 18004KT 17/12 A2993 RMK A01 T01680121  RH  074%=      5-min Rain = 0
KMD1 200518Z 18006KT 17/12 A2993 RMK A01 T01680122  RH  074%=      5-min Rain = 0
KMD1 200519Z 18005KT 17/12 A2993 RMK A01 T01680122  RH  074%=      5-min Rain = 0
KMD1 200520Z 18008KT 17/12 A2993 RMK A01 T01680121  RH  074%=      5-min Rain = 0
KMD1 200521Z 18008KT 17/12 A2993 RMK A01 T01680122  RH  074%=      5-min Rain = 0
KMD1 200522Z 18006KT 17/12 A2993 RMK A01 T01680122  RH  074%=      5-min Rain = 0
KMD1 200523Z 17005KT 17/12 A2993 RMK A01 T01680122  RH  074%=      5-min Rain = 0
KMD1 200524Z 17004KT 17/12 A2993 RMK A01 T01680121  RH  074%=      5-min Rain = 0
KMD1 200525Z 18004KT 17/12 A2993 RMK A01 T01680121  RH  074%=      5-min Rain = 0
KMD1 200526Z 19006KT 17/12 A2993 RMK A01 T01670122  RH  075%=      5-min Rain = 0
KMD1 200527Z 18006KT 17/12 A2993 RMK A01 T01670122  RH  075%=      5-min Rain = 0
KMD1 200528Z 17004KT 17/12 A2993 RMK A01 T01670122  RH  075%=      5-min Rain = 0
KMD1 200529Z 18006KT 17/12 A2992 RMK A01 T01670122  RH  075%=      5-min Rain = 0
KMD1 200530Z 18006KT 17/12 A2992 RMK A01 T01670122  RH  075%=      5-min Rain = 0
KMD1 200531Z 18006KT 17/12 A2992 RMK A01 T01670121  RH  074%=      5-min Rain = 0
KMD1 200532Z 17006KT 17/12 A2992 RMK A01 T01660122  RH  075%=      5-min Rain = 0
KMD1 200533Z 16007KT 17/12 A2992 RMK A01 T01660121  RH  075%=      5-min Rain = 0
KMD1 200534Z 18009KT 17/12 A2992 RMK A01 T01650122  RH  076%=      5-min Rain = 0
KMD1 200535Z 17006KT 17/12 A2992 RMK A01 T01650122  RH  076%=      5-min Rain = 0
KMD1 200536Z 17004KT 17/12 A2992 RMK A01 T01660121  RH  075%=      5-min Rain = 0
KMD1 200537Z 17006KT 17/12 A2992 RMK A01 T01660122  RH  075%=      5-min Rain = 0
KMD1 200538Z 18007KT 17/12 A2992 RMK A01 T01650122  RH  076%=      5-min Rain = 0
KMD1 200539Z 18005KT 17/12 A2992 RMK A01 T01650122  RH  075%=      5-min Rain = 0
KMD1 200540Z 19005KT 17/12 A2992 RMK A01 T01650121  RH  075%=      5-min Rain = 0
KMD1 200541Z 18005KT 16/12 A2992 RMK A01 T01640121  RH  076%=      5-min Rain = 0
KMD1 200542Z 18004KT 16/12 A2992 RMK A01 T01640122  RH  076%=      5-min Rain = 0
KMD1 200543Z 18004KT 16/12 A2992 RMK A01 T01640121  RH  076%=      5-min Rain = 0
KMD1 200544Z 17005KT 16/12 A2992 RMK A01 T01630120  RH  076%=      5-min Rain = 0
KMD1 200545Z 16006KT 16/12 A2992 RMK A01 T01620121  RH  077%=      5-min Rain = 0
KMD1 200546Z 19005KT 16/12 A2992 RMK A01 T01620121  RH  077%=      5-min Rain = 0
KMD1 200547Z 18004KT 16/12 A2992 RMK A01 T01620121  RH  077%=      5-min Rain = 0
KMD1 200548Z 15004KT 16/12 A2992 RMK A01 T01610121  RH  077%=      5-min Rain = 0
KMD1 200549Z 18004KT 16/12 A2992 RMK A01 T01610121  RH  077%=      5-min Rain = 0
KMD1 200550Z 17004KT 16/12 A2992 RMK A01 T01600120  RH  077%=      5-min Rain = 0
KMD1 200551Z 17005KT 16/12 A2992 RMK A01 T01600120  RH  078%=      5-min Rain = 0
KMD1 200552Z 19005KT 16/12 A2992 RMK A01 T01590121  RH  078%=      5-min Rain = 0
KMD1 200553Z 19003KT 16/12 A2992 RMK A01 T01600121  RH  078%=      5-min Rain = 0
KMD1 200554Z 17003KT 16/12 A2992 RMK A01 T01600120  RH  077%=      5-min Rain = 0
KMD1 200555Z 18004KT 16/12 A2992 RMK A01 T01600121  RH  078%=      5-min Rain = 0
KMD1 200556Z 17002KT 16/12 A2992 RMK A01 T01600122  RH  078%=      5-min Rain = 0
KMD1 200557Z 16002KT 16/12 A2992 RMK A01 T01600120  RH  077%=      5-min Rain = 0
KMD1 200558Z 19002KT 16/12 A2992 RMK A01 T01600120  RH  077%=      5-min Rain = 0
KMD1 200559Z 17002KT 16/12 A2992 RMK A01 T01590120  RH  078%=      5-min Rain = 0

Page generated in 0.0166 seconds.